createdAt,value
2023-03-18T00:01:08.949Z,34.84
2023-03-18T00:03:38.732Z,35.28
2023-03-18T00:06:08.734Z,35.95
2023-03-18T00:08:37.798Z,36.41
2023-03-18T00:11:08.179Z,36.79
2023-03-18T00:13:36.569Z,38.19
2023-03-18T00:16:09.491Z,38.00
2023-03-18T00:18:39.593Z,38.41
2023-03-18T00:21:10.235Z,38.44
2023-03-18T00:23:38.936Z,38.71
2023-03-18T00:26:09.402Z,39.11
2023-03-18T00:28:40.220Z,38.93
2023-03-18T00:31:09.917Z,39.09
2023-03-18T00:33:43.744Z,40.15
2023-03-18T00:36:13.972Z,39.33
2023-03-18T00:38:43.074Z,39.02
2023-03-18T00:41:16.188Z,39.16
2023-03-18T00:43:52.849Z,39.38
2023-03-18T00:46:24.609Z,39.31
2023-03-18T00:48:56.100Z,39.54
2023-03-18T00:51:26.693Z,38.95
2023-03-18T00:53:57.201Z,39.01
2023-03-18T00:56:28.618Z,38.82
2023-03-18T00:59:00.125Z,38.65
2023-03-18T01:01:31.614Z,38.58
2023-03-18T01:04:02.655Z,38.17
2023-03-18T01:06:32.753Z,38.05
2023-03-18T01:09:01.490Z,38.38
2023-03-18T01:11:29.850Z,38.02
2023-03-18T01:13:59.526Z,37.05
2023-03-18T01:16:29.795Z,36.50
2023-03-18T01:18:58.357Z,36.61
2023-03-18T01:21:27.922Z,36.84
2023-03-18T01:24:00.967Z,37.06
2023-03-18T01:26:30.436Z,36.54
2023-03-18T01:29:00.853Z,37.09
2023-03-18T01:31:31.031Z,37.71
2023-03-18T01:34:05.011Z,37.67
2023-03-18T01:36:44.627Z,38.05
2023-03-18T01:39:12.614Z,37.72
2023-03-18T01:41:40.950Z,37.74
2023-03-18T01:44:15.616Z,37.80
2023-03-18T01:46:49.637Z,37.58
2023-03-18T01:49:23.168Z,38.72
2023-03-18T01:51:56.669Z,39.36
2023-03-18T01:54:28.392Z,38.36
2023-03-18T01:56:57.454Z,38.39
2023-03-18T01:59:28.935Z,38.17
2023-03-18T02:02:02.649Z,37.96
2023-03-18T02:04:38.190Z,38.38
2023-03-18T02:07:08.982Z,40.48
2023-03-18T02:09:37.599Z,40.72
2023-03-18T02:12:08.675Z,40.83
2023-03-18T02:14:36.837Z,41.81
2023-03-18T02:17:12.492Z,42.71
2023-03-18T02:22:27.629Z,42.57
2023-03-18T02:25:14.252Z,42.67
2023-03-18T02:27:47.558Z,42.51
2023-03-18T02:30:20.761Z,42.19
2023-03-18T02:32:53.510Z,42.09
2023-03-18T02:35:22.752Z,42.51
2023-03-18T02:37:53.081Z,42.05
2023-03-18T02:40:29.300Z,43.10
2023-03-18T02:43:10.922Z,43.28
2023-03-18T02:45:51.848Z,43.48
2023-03-18T02:48:24.290Z,42.51
2023-03-18T02:50:52.742Z,43.63
2023-03-18T02:53:20.970Z,43.30
2023-03-18T02:55:49.354Z,44.28
2023-03-18T02:58:28.672Z,50.35
2023-03-18T03:01:04.544Z,53.88
2023-03-18T03:03:34.758Z,63.51
2023-03-18T03:06:04.143Z,62.32
2023-03-18T03:08:36.072Z,60.06
2023-03-18T03:11:14.555Z,58.49
2023-03-18T03:13:46.394Z,57.96
2023-03-18T03:16:18.502Z,52.29
2023-03-18T03:18:46.894Z,53.32
2023-03-18T03:21:17.238Z,51.33
2023-03-18T03:23:47.780Z,50.78
2023-03-18T03:26:17.013Z,50.09
2023-03-18T03:28:46.972Z,52.57
2023-03-18T03:31:15.648Z,51.57
2023-03-18T03:33:44.224Z,52.11
2023-03-18T03:36:14.394Z,53.49
2023-03-18T03:38:43.707Z,52.49
2023-03-18T03:41:13.601Z,53.86
2023-03-18T03:43:42.379Z,53.51
2023-03-18T03:46:12.777Z,54.38
2023-03-18T03:48:42.211Z,53.76
2023-03-18T03:51:15.224Z,56.23
2023-03-18T03:53:44.567Z,57.04
2023-03-18T03:56:13.352Z,54.62
2023-03-18T03:58:42.351Z,55.41
2023-03-18T04:01:12.678Z,55.69
2023-03-18T04:03:41.605Z,56.72
2023-03-18T04:06:11.499Z,56.49
2023-03-18T04:08:46.926Z,57.90
2023-03-18T04:11:16.280Z,58.73
2023-03-18T04:13:45.701Z,59.63
2023-03-18T04:16:17.151Z,61.58
2023-03-18T04:18:46.013Z,60.56
2023-03-18T04:21:16.710Z,57.58
2023-03-18T04:23:49.724Z,57.52
2023-03-18T04:26:20.246Z,57.00
2023-03-18T04:28:49.602Z,58.84
2023-03-18T04:31:19.618Z,59.71
2023-03-18T04:33:49.267Z,58.12
2023-03-18T04:36:17.535Z,60.68
2023-03-18T04:38:46.816Z,60.38
2023-03-18T04:41:16.357Z,62.15
2023-03-18T04:43:45.678Z,60.62
2023-03-18T04:46:14.037Z,61.63
2023-03-18T04:48:45.998Z,62.08
2023-03-18T04:51:16.621Z,65.35
2023-03-18T04:53:46.724Z,63.19
2023-03-18T04:56:15.677Z,62.17
2023-03-18T04:58:49.326Z,61.15
2023-03-18T05:01:22.627Z,61.34
2023-03-18T05:03:53.108Z,60.43
2023-03-18T05:06:25.641Z,62.36
2023-03-18T05:09:01.303Z,62.90
2023-03-18T05:11:34.695Z,60.04
2023-03-18T05:14:12.626Z,61.65
2023-03-18T05:16:47.535Z,59.48
2023-03-18T05:19:18.111Z,58.42
2023-03-18T05:21:57.900Z,60.33
2023-03-18T05:24:27.380Z,59.01
2023-03-18T05:26:56.204Z,62.28
2023-03-18T05:29:28.946Z,61.46
2023-03-18T05:32:12.795Z,64.51
2023-03-18T05:34:43.503Z,61.74
2023-03-18T05:37:15.571Z,60.71
2023-03-18T05:39:49.988Z,59.96
2023-03-18T05:42:20.679Z,60.93
2023-03-18T05:44:49.964Z,62.77
2023-03-18T05:47:22.684Z,62.92
2023-03-18T05:50:09.046Z,62.82
2023-03-18T05:52:38.922Z,60.07
2023-03-18T05:55:15.570Z,59.76
2023-03-18T05:57:46.792Z,60.15
2023-03-18T06:00:18.714Z,61.27
2023-03-18T06:02:50.115Z,61.33
2023-03-18T06:05:21.459Z,61.24
2023-03-18T06:07:50.653Z,61.93
2023-03-18T06:10:20.648Z,61.46
2023-03-18T06:12:50.986Z,60.55
2023-03-18T06:15:21.479Z,59.95
2023-03-18T06:17:50.432Z,59.03
2023-03-18T06:20:21.924Z,55.24
2023-03-18T06:22:50.390Z,55.94
2023-03-18T06:25:24.242Z,57.36
2023-03-18T06:27:53.928Z,56.21
2023-03-18T06:30:27.856Z,56.15
2023-03-18T06:32:56.892Z,55.02
2023-03-18T06:35:30.478Z,55.55
2023-03-18T06:37:59.849Z,56.30
2023-03-18T06:40:36.470Z,55.27
2023-03-18T06:46:07.769Z,57.34
2023-03-18T06:48:40.458Z,56.22
2023-03-18T06:51:13.951Z,55.95
2023-03-18T06:53:45.763Z,56.45
2023-03-18T06:56:16.914Z,58.22
2023-03-18T06:58:56.256Z,58.10
2023-03-18T07:01:27.089Z,61.94
2023-03-18T07:03:56.678Z,62.23
2023-03-18T07:06:29.847Z,60.09
2023-03-18T07:09:02.190Z,58.14
2023-03-18T07:11:31.411Z,58.48
2023-03-18T07:14:06.263Z,58.75
2023-03-18T07:16:37.476Z,57.56
2023-03-18T07:19:07.122Z,57.35
2023-03-18T07:21:41.007Z,56.96
2023-03-18T07:24:10.136Z,55.65
2023-03-18T07:27:12.079Z,54.03
2023-03-18T07:29:58.988Z,55.52
2023-03-18T07:32:35.900Z,57.26
2023-03-18T07:35:11.211Z,54.92
2023-03-18T07:37:53.319Z,54.73
2023-03-18T07:40:27.342Z,56.16
2023-03-18T07:43:20.292Z,54.07
2023-03-18T07:48:53.612Z,52.36
2023-03-18T07:51:21.676Z,54.67
2023-03-18T07:53:50.734Z,53.77
2023-03-18T07:56:18.717Z,54.68
2023-03-18T07:58:46.688Z,54.99
2023-03-18T08:01:16.593Z,56.39
2023-03-18T08:03:44.855Z,58.67
2023-03-18T08:06:15.327Z,59.52
2023-03-18T08:08:44.641Z,58.30
2023-03-18T08:11:13.307Z,57.50
2023-03-18T08:13:41.333Z,59.82
2023-03-18T08:16:31.477Z,59.21
2023-03-18T08:19:36.544Z,56.23
2023-03-18T08:22:39.801Z,57.48
2023-03-18T08:25:13.238Z,58.43
2023-03-18T08:27:45.281Z,57.83
2023-03-18T08:30:17.264Z,61.11
2023-03-18T08:32:46.559Z,61.13
2023-03-18T08:35:25.948Z,61.84
2023-03-18T08:37:56.351Z,59.54
2023-03-18T08:40:31.806Z,55.20
2023-03-18T08:42:59.966Z,53.43
2023-03-18T08:45:28.764Z,55.84
2023-03-18T08:47:57.048Z,54.71
2023-03-18T08:50:28.546Z,53.23
2023-03-18T08:53:01.646Z,53.42
2023-03-18T08:55:34.042Z,57.24
2023-03-18T08:58:04.530Z,54.80
2023-03-18T09:00:35.463Z,52.46
2023-03-18T09:03:05.372Z,53.25
2023-03-18T09:05:36.064Z,51.20
2023-03-18T09:08:42.173Z,50.87
2023-03-18T09:11:13.964Z,53.23
2023-03-18T09:13:42.253Z,50.67
2023-03-18T09:16:22.392Z,50.18
2023-03-18T09:24:47.975Z,51.01
2023-03-18T09:27:30.837Z,49.80
2023-03-18T09:30:13.961Z,49.11
2023-03-18T09:42:01.132Z,49.01
2023-03-18T09:44:36.277Z,47.27
2023-03-18T09:47:26.203Z,49.89
2023-03-18T09:50:11.359Z,47.06
2023-03-18T09:52:45.368Z,46.27
2023-03-18T09:59:00.475Z,44.25
2023-03-18T10:01:29.908Z,45.37
2023-03-18T10:04:04.094Z,44.88
2023-03-18T10:09:34.731Z,45.05
2023-03-18T10:12:14.724Z,45.25
2023-03-18T10:14:50.224Z,44.08
2023-03-18T10:20:39.806Z,44.31
2023-03-18T10:26:41.828Z,45.30
2023-03-18T10:29:24.920Z,46.20
2023-03-18T10:32:08.385Z,45.63
2023-03-18T10:34:44.367Z,46.22
2023-03-18T10:37:25.189Z,42.70
2023-03-18T10:39:55.071Z,43.14
2023-03-18T10:42:26.781Z,43.19
2023-03-18T10:44:58.384Z,44.67
2023-03-18T10:47:30.381Z,43.63
2023-03-18T10:50:06.349Z,43.45
2023-03-18T10:52:43.240Z,43.48
2023-03-18T10:55:17.977Z,43.20
2023-03-18T10:57:48.360Z,43.54
2023-03-18T11:03:38.547Z,41.95
2023-03-18T11:06:14.189Z,42.27
2023-03-18T11:08:44.982Z,42.19
2023-03-18T11:11:21.875Z,42.27
2023-03-18T11:13:55.990Z,42.68
2023-03-18T11:16:29.792Z,43.10
2023-03-18T11:18:59.780Z,42.89
2023-03-18T11:21:29.809Z,41.31
2023-03-18T11:24:20.945Z,43.10
2023-03-18T11:26:54.473Z,42.49
2023-03-18T11:29:26.099Z,42.48
2023-03-18T11:31:59.894Z,42.48
2023-03-18T11:34:30.867Z,41.54
2023-03-18T11:37:04.516Z,42.47
2023-03-18T11:39:37.636Z,43.00
2023-03-18T11:42:18.922Z,41.28
2023-03-18T11:44:47.817Z,41.17
2023-03-18T11:47:24.232Z,41.25
2023-03-18T11:49:54.514Z,41.80
2023-03-18T11:55:23.957Z,41.79
2023-03-18T11:58:18.048Z,41.08
2023-03-18T12:00:53.887Z,40.99
2023-03-18T12:04:06.133Z,41.36
2023-03-18T12:06:42.884Z,40.92
2023-03-18T12:09:22.749Z,42.82
2023-03-18T12:12:06.969Z,40.39
2023-03-18T12:14:42.179Z,40.94
2023-03-18T12:17:25.757Z,39.88
2023-03-18T12:20:10.382Z,39.98
2023-03-18T12:23:07.218Z,39.01
2023-03-18T12:25:58.691Z,38.98
2023-03-18T12:28:39.218Z,39.72
2023-03-18T12:31:28.037Z,38.71
2023-03-18T12:33:58.825Z,38.50
2023-03-18T12:36:40.442Z,38.83
2023-03-18T12:39:35.470Z,38.22
2023-03-18T12:42:09.433Z,36.63
2023-03-18T12:44:57.925Z,39.05
2023-03-18T12:47:32.383Z,39.06
2023-03-18T12:50:05.031Z,37.23
2023-03-18T12:52:41.369Z,37.85
2023-03-18T12:55:18.709Z,38.34
2023-03-18T12:57:50.116Z,36.89
2023-03-18T13:00:24.871Z,36.89
2023-03-18T13:03:00.092Z,38.18
2023-03-18T13:05:42.048Z,37.59
2023-03-18T13:08:48.517Z,37.11
2023-03-18T13:11:44.662Z,36.63
2023-03-18T13:14:22.974Z,36.68
2023-03-18T13:16:52.073Z,36.76
2023-03-18T13:19:20.081Z,36.27
2023-03-18T13:22:04.975Z,37.00
2023-03-18T13:24:54.037Z,36.35
2023-03-18T13:27:54.831Z,37.01
2023-03-18T13:30:33.057Z,35.43
2023-03-18T13:33:27.197Z,35.72
2023-03-18T13:36:24.026Z,35.90
2023-03-18T13:39:02.387Z,36.29
2023-03-18T13:41:47.127Z,36.37
2023-03-18T13:44:26.152Z,35.97
2023-03-18T13:47:03.217Z,36.41
2023-03-18T13:49:33.752Z,36.29
2023-03-18T13:52:04.077Z,36.52
2023-03-18T13:54:36.684Z,35.11
2023-03-18T13:57:37.368Z,34.83
2023-03-18T14:00:33.687Z,34.49
2023-03-18T14:03:20.553Z,34.85
2023-03-18T14:05:50.427Z,35.12
2023-03-18T14:08:48.339Z,35.80
2023-03-18T14:11:50.478Z,34.43
2023-03-18T14:14:57.099Z,35.92
2023-03-18T14:17:35.358Z,33.97
2023-03-18T14:20:19.632Z,33.16
2023-03-18T14:22:50.773Z,32.03
2023-03-18T14:25:38.089Z,32.23
2023-03-18T14:28:20.605Z,31.29
2023-03-18T14:30:56.040Z,31.56
2023-03-18T14:33:56.770Z,30.89
2023-03-18T14:36:50.551Z,33.21
2023-03-18T14:39:22.157Z,34.14
2023-03-18T14:41:56.038Z,33.19
2023-03-18T14:44:29.892Z,33.23
2023-03-18T14:47:00.709Z,32.33
2023-03-18T14:49:45.494Z,33.77
2023-03-18T14:52:30.581Z,33.58
2023-03-18T14:55:03.776Z,32.44
2023-03-18T14:57:32.929Z,32.17
2023-03-18T15:00:02.320Z,32.99
2023-03-18T15:02:35.774Z,32.90
2023-03-18T15:05:07.817Z,34.21
2023-03-18T15:07:45.531Z,34.45
2023-03-18T15:10:17.856Z,34.49
2023-03-18T15:12:46.134Z,34.27
2023-03-18T15:15:18.297Z,33.49
2023-03-18T15:17:49.844Z,32.75
2023-03-18T15:20:20.467Z,32.13
2023-03-18T15:22:49.104Z,32.22
2023-03-18T15:25:21.081Z,33.76
2023-03-18T15:27:49.926Z,32.93
2023-03-18T15:30:27.189Z,34.04
2023-03-18T15:33:04.830Z,33.52
2023-03-18T15:35:35.584Z,33.05
2023-03-18T15:38:14.682Z,32.75
2023-03-18T15:40:53.475Z,33.36
2023-03-18T15:43:30.444Z,33.11
2023-03-18T15:46:00.457Z,33.46
2023-03-18T15:48:36.033Z,32.67
2023-03-18T15:51:09.946Z,32.85
2023-03-18T15:53:44.695Z,33.25
2023-03-18T15:56:19.661Z,35.23
2023-03-18T15:58:58.003Z,34.76
2023-03-18T16:01:26.464Z,34.45
2023-03-18T16:03:54.835Z,34.17
2023-03-18T16:06:24.636Z,34.00
2023-03-18T16:08:52.663Z,34.81
2023-03-18T16:11:23.620Z,33.71
2023-03-18T16:13:53.256Z,34.22
2023-03-18T16:16:27.822Z,33.99
2023-03-18T16:18:57.219Z,35.24
2023-03-18T16:21:27.012Z,34.64
2023-03-18T16:23:55.860Z,33.90
2023-03-18T16:26:24.092Z,33.99
2023-03-18T16:28:52.972Z,34.53
2023-03-18T16:31:20.920Z,34.72
2023-03-18T16:33:52.697Z,33.27
2023-03-18T16:36:34.083Z,32.64
2023-03-18T16:39:05.278Z,31.22
2023-03-18T16:41:34.556Z,31.33
2023-03-18T16:44:03.621Z,31.23
2023-03-18T16:46:32.480Z,31.28
2023-03-18T16:49:02.566Z,32.86
2023-03-18T16:51:34.227Z,31.72
2023-03-18T16:54:02.005Z,31.91
2023-03-18T16:56:30.185Z,31.80
2023-03-18T16:58:58.159Z,32.55
2023-03-18T17:01:28.270Z,33.19
2023-03-18T17:03:57.150Z,33.99
2023-03-18T17:06:26.193Z,34.12
2023-03-18T17:08:56.682Z,34.30
2023-03-18T17:11:24.911Z,34.96
2023-03-18T17:13:54.328Z,34.71
2023-03-18T17:16:23.146Z,34.75
2023-03-18T17:18:51.442Z,35.23
2023-03-18T17:21:19.617Z,34.66
2023-03-18T17:23:47.925Z,35.11
2023-03-18T17:26:17.411Z,35.64
2023-03-18T17:28:48.351Z,35.94
2023-03-18T17:31:17.317Z,35.55
2023-03-18T17:33:45.773Z,36.33
2023-03-18T17:36:13.815Z,36.52
2023-03-18T17:38:41.918Z,36.32
2023-03-18T17:41:19.477Z,36.74
2023-03-18T17:43:47.394Z,36.84
2023-03-18T17:46:15.386Z,37.84
2023-03-18T17:48:43.834Z,37.70
2023-03-18T17:51:16.973Z,38.28
2023-03-18T17:53:47.892Z,37.84
2023-03-18T17:56:19.664Z,38.36
2023-03-18T17:58:49.416Z,38.09
2023-03-18T18:01:19.672Z,38.90
2023-03-18T18:03:48.535Z,39.17
2023-03-18T18:06:19.220Z,39.54
2023-03-18T18:08:48.370Z,39.59
2023-03-18T18:11:21.324Z,39.40
2023-03-18T18:13:50.989Z,39.20
2023-03-18T18:16:19.952Z,39.69
2023-03-18T18:18:49.872Z,40.64
2023-03-18T18:21:21.398Z,40.39
2023-03-18T18:23:49.838Z,41.22
2023-03-18T18:26:21.468Z,40.73
2023-03-18T18:28:51.148Z,39.41
2023-03-18T18:31:20.762Z,39.78
2023-03-18T18:33:50.478Z,40.34
2023-03-18T18:36:18.724Z,40.73
2023-03-18T18:38:47.031Z,40.54
2023-03-18T18:41:15.239Z,40.77
2023-03-18T18:43:44.476Z,41.15
2023-03-18T18:46:14.865Z,41.50
2023-03-18T18:48:45.471Z,41.09
2023-03-18T18:51:18.412Z,41.43
2023-03-18T18:53:47.571Z,40.73
2023-03-18T18:56:20.528Z,40.86
2023-03-18T18:58:51.766Z,40.70
2023-03-18T19:01:20.952Z,41.00
2023-03-18T19:03:49.992Z,40.75
2023-03-18T19:06:27.991Z,40.94
2023-03-18T19:08:58.097Z,41.51
2023-03-18T19:11:27.492Z,41.74
2023-03-18T19:14:18.355Z,41.79
2023-03-18T19:16:49.259Z,42.16
2023-03-18T19:19:29.680Z,43.25
2023-03-18T19:21:59.117Z,42.80
2023-03-18T19:24:31.038Z,42.38
2023-03-18T19:27:02.633Z,41.27
2023-03-18T19:29:33.555Z,41.09
2023-03-18T19:32:02.256Z,41.37
2023-03-18T19:34:32.185Z,41.02
2023-03-18T19:37:02.978Z,41.92
2023-03-18T19:39:31.756Z,41.62
2023-03-18T19:41:59.733Z,42.31
2023-03-18T19:44:28.041Z,42.20
2023-03-18T19:47:01.235Z,41.64
2023-03-18T19:49:32.988Z,41.12
2023-03-18T19:52:02.155Z,41.81
2023-03-18T19:54:32.626Z,41.52
2023-03-18T19:57:03.903Z,43.19
2023-03-18T19:59:38.794Z,45.14
2023-03-18T20:02:20.276Z,44.77
2023-03-18T20:04:49.454Z,48.41
2023-03-18T20:07:19.031Z,45.81
2023-03-18T20:09:47.424Z,46.31
2023-03-18T20:12:24.633Z,51.30
2023-03-18T20:14:52.802Z,49.01
2023-03-18T20:17:41.304Z,49.46
2023-03-18T20:20:15.639Z,50.92
2023-03-18T20:22:48.214Z,52.46
2023-03-18T20:25:21.874Z,52.79
2023-03-18T20:27:53.561Z,49.78
2023-03-18T20:30:28.702Z,49.30
2023-03-18T20:32:59.999Z,50.33
2023-03-18T20:35:31.041Z,51.50
2023-03-18T20:38:01.455Z,54.54
2023-03-18T20:40:31.965Z,56.47
2023-03-18T20:43:00.441Z,55.50
2023-03-18T20:45:29.400Z,59.17
2023-03-18T20:47:59.008Z,53.60
2023-03-18T20:50:29.771Z,52.45
2023-03-18T20:52:58.937Z,52.17
2023-03-18T20:55:30.748Z,52.32
2023-03-18T20:58:00.546Z,56.18
2023-03-18T21:00:31.169Z,55.65
2023-03-18T21:03:03.154Z,56.14
2023-03-18T21:05:31.597Z,56.14
2023-03-18T21:07:59.791Z,56.76
2023-03-18T21:10:28.968Z,55.66
2023-03-18T21:12:58.355Z,56.25
2023-03-18T21:15:28.273Z,57.43
2023-03-18T21:17:56.690Z,56.16
2023-03-18T21:20:31.680Z,55.14
2023-03-18T21:23:00.508Z,56.24
2023-03-18T21:25:29.863Z,53.30
2023-03-18T21:27:59.408Z,54.78
2023-03-18T21:30:27.957Z,52.37
2023-03-18T21:32:56.512Z,53.14
2023-03-18T21:35:27.245Z,53.81
2023-03-18T21:37:57.258Z,54.65
2023-03-18T21:40:27.082Z,53.71
2023-03-18T21:42:55.872Z,52.86
2023-03-18T21:45:26.350Z,52.34
2023-03-18T21:48:01.268Z,50.72
2023-03-18T21:50:45.278Z,51.95
2023-03-18T21:53:35.099Z,50.00
2023-03-18T21:56:18.438Z,49.76
2023-03-18T21:58:48.507Z,49.11
2023-03-18T22:01:23.931Z,48.61
2023-03-18T22:03:56.123Z,49.74
2023-03-18T22:06:30.639Z,51.73
2023-03-18T22:11:55.102Z,52.14
2023-03-18T22:14:23.709Z,52.90
2023-03-18T22:16:52.863Z,51.18
2023-03-18T22:19:23.774Z,52.33
2023-03-18T22:21:52.839Z,54.00
2023-03-18T22:24:27.691Z,53.31
2023-03-18T22:26:58.711Z,50.24
2023-03-18T22:29:30.445Z,52.09
2023-03-18T22:31:59.470Z,52.83
2023-03-18T22:34:28.659Z,53.28
2023-03-18T22:37:01.155Z,51.34
2023-03-18T22:39:33.021Z,50.90
2023-03-18T22:42:03.215Z,52.62
2023-03-18T22:44:35.487Z,52.88
2023-03-18T22:47:14.210Z,51.80
2023-03-18T22:49:44.487Z,53.53
2023-03-18T22:52:21.436Z,51.89
2023-03-18T22:54:58.724Z,53.62
2023-03-18T22:57:29.187Z,55.08
2023-03-18T23:00:02.690Z,54.35
2023-03-18T23:02:34.349Z,52.87
2023-03-18T23:05:03.946Z,50.81
2023-03-18T23:07:35.944Z,51.38
2023-03-18T23:10:07.047Z,51.04
2023-03-18T23:12:35.621Z,51.18
2023-03-18T23:15:08.769Z,52.96
2023-03-18T23:17:39.712Z,52.03
2023-03-18T23:20:11.317Z,52.53
2023-03-18T23:22:40.973Z,53.59
2023-03-18T23:25:20.129Z,52.63
2023-03-18T23:27:49.710Z,51.17
2023-03-18T23:30:21.782Z,51.09
2023-03-18T23:32:52.656Z,51.58
2023-03-18T23:35:22.077Z,52.73
2023-03-18T23:37:50.727Z,54.83
2023-03-18T23:40:22.209Z,52.92
2023-03-18T23:42:55.578Z,50.04
2023-03-18T23:45:25.090Z,50.61
2023-03-18T23:47:57.155Z,51.64
2023-03-18T23:50:27.583Z,51.66
2023-03-18T23:53:01.689Z,51.74
2023-03-18T23:55:42.570Z,50.68
2023-03-18T23:58:37.558Z,50.70
